KSEZKDAG

Guest
Details From KSEZ - Sedona
To KDAG - BARSTOW DAGGETT
Flight Number -
Tags decoded
Created
Modified
Stats Distance 247 nm / 457 km
Max Altitude 0 ft / 0 m
Waypoints 3
Social Downloads 0
Likes 0
Share VATSIM

Download

Looking for another format? Having issues loading an existing format? Contact us
Advertisement - Login to hide

Notes

Requested: KSEZ EED KDAG

Route

KSEZ EED KDAG

ID Type Via Altitude Latitude Longitude Leg Dist Tot Dist Heading (true) Name
O KSEZ APT - 0 ft / 0 m 34.84861˚ -111.78848˚ - 0 nm - Sedona
EED VOR - 0 ft / 0 m 34.76600˚ -114.47411˚ 132 nm 132 nm 269° / 267° NEEDLES VORTAC
O KDAG APT - 0 ft / 0 m 34.85399˚ -116.78663˚ 114 nm 246 nm 273° / 272° BARSTOW DAGGETT

Altitude Profile

Advertisement - Login to hide

Weather


0- 5 10 15 20 25 30 35+ Temperature / ° C

Clouds and Precipitation
Forecast for 2017-12-17 18:00 UTC. Updated an hour ago

Ground ~20,000 ft ~40,000 ft Winds

KSEZ

Details ICAO KSEZ (SDX)
Name Sedona
Region United States
Timezone America/Phoenix (UTC-7.0)
Stats Elevation 4,827 ft / 1,471 m (AMSL)
Location 34.848607° -111.788482°
Runways 1
Magnetic Variation 10.458° E

METAR

KSEZ 171335Z AUTO 04011KT 10SM CLR 06/M09 A2992 RMK AO2 LTG DSNT S

Decode

TAF

TAF KSEZ 171120Z 1712/1812 04010KT P6SM BKN120 OVC170 FM171700 09008KT P6SM BKN080 OVC120 FM180300 05010G18KT P6SM SCT050 SCT080

Decode

Departure Runways

ID Width Length Bearing (true) Bearing (mag) Surface Threshold Offset Overrun Length
03 100 ft / 30 m 5,130 ft / 1,564 m 45.63° 35.17° Asphalt 0 ft / 0 m 0 ft / 0 m
21 100 ft / 30 m 5,130 ft / 1,564 m 225.64° 215.18° Asphalt 0 ft / 0 m 0 ft / 0 m

KDAG

Details ICAO KDAG
Name BARSTOW DAGGETT
Region United States
Timezone America/Los_Angeles (UTC-8.0)
Stats Elevation 1,927 ft / 587 m (AMSL)
Location 34.853992° -116.786628°
Runways 2
Magnetic Variation 11.834° E

METAR

KDAG 171250Z AUTO 18005KT 10SM CLR 06/M10 A3001 RMK AO2 SLP157 T00611100

Decode

TAF

KDAG 171132Z 1712/1812 02008KT P6SM SCT090 SCT250 FM171800 03013KT P6SM FEW100 FEW250 FM180000 VRB05KT P6SM FEW250 FM180400 26007KT P6SM FEW250

Decode

Destination Runways

ID Width Length Bearing (true) Bearing (mag) Surface Threshold Offset Overrun Length
04 100 ft / 30 m 5,118 ft / 1,560 m 50.37° 38.54° Asphalt 0 ft / 0 m 0 ft / 0 m
08 150 ft / 46 m 6,387 ft / 1,947 m 90.04° 78.21° Asphalt 0 ft / 0 m 0 ft / 0 m
22 100 ft / 30 m 5,118 ft / 1,560 m 230.38° 218.55° Asphalt 0 ft / 0 m 0 ft / 0 m
26 150 ft / 46 m 6,387 ft / 1,947 m 270.05° 258.22° Asphalt 0 ft / 0 m 0 ft / 0 m